sensor_id;sensor_type;location;lat;lon;timestamp;P1;durP1;ratioP1;P2;durP2;ratioP2
43676;SDS011;29275;48.800;18.102;2023-03-20T00:00:51;4.88;;;2.72;;
43676;SDS011;29275;48.800;18.102;2023-03-20T00:03:54;4.40;;;2.80;;
43676;SDS011;29275;48.800;18.102;2023-03-20T00:06:57;5.57;;;3.30;;
43676;SDS011;29275;48.800;18.102;2023-03-20T00:10:00;5.28;;;2.67;;
43676;SDS011;29275;48.800;18.102;2023-03-20T00:13:04;5.93;;;3.40;;
43676;SDS011;29275;48.800;18.102;2023-03-20T00:16:08;6.45;;;2.92;;
43676;SDS011;29275;48.800;18.102;2023-03-20T00:19:17;6.13;;;2.97;;
43676;SDS011;29275;48.800;18.102;2023-03-20T00:22:31;13.50;;;7.43;;
43676;SDS011;29275;48.800;18.102;2023-03-20T00:25:37;5.97;;;3.63;;
43676;SDS011;29275;48.800;18.102;2023-03-20T00:28:41;5.68;;;2.90;;
43676;SDS011;29275;48.800;18.102;2023-03-20T00:31:45;4.43;;;2.03;;
43676;SDS011;29275;48.800;18.102;2023-03-20T00:34:48;5.30;;;2.08;;
43676;SDS011;29275;48.800;18.102;2023-03-20T00:37:51;5.82;;;3.10;;
43676;SDS011;29275;48.800;18.102;2023-03-20T00:40:54;3.95;;;2.00;;
43676;SDS011;29275;48.800;18.102;2023-03-20T00:43:58;7.82;;;3.25;;
43676;SDS011;29275;48.800;18.102;2023-03-20T00:47:08;19.67;;;9.95;;
43676;SDS011;29275;48.800;18.102;2023-03-20T00:50:19;5.43;;;2.45;;
43676;SDS011;29275;48.800;18.102;2023-03-20T00:53:23;5.10;;;2.75;;
43676;SDS011;29275;48.800;18.102;2023-03-20T00:56:33;5.68;;;2.60;;
43676;SDS011;29275;48.800;18.102;2023-03-20T00:59:38;6.75;;;2.45;;
43676;SDS011;29275;48.800;18.102;2023-03-20T01:02:43;4.25;;;2.40;;
43676;SDS011;29275;48.800;18.102;2023-03-20T01:05:47;5.60;;;2.38;;
43676;SDS011;29275;48.800;18.102;2023-03-20T01:08:51;5.43;;;2.65;;
43676;SDS011;29275;48.800;18.102;2023-03-20T01:11:53;5.13;;;2.63;;
43676;SDS011;29275;48.800;18.102;2023-03-20T01:14:56;5.20;;;2.80;;
43676;SDS011;29275;48.800;18.102;2023-03-20T01:18:00;4.28;;;2.60;;
43676;SDS011;29275;48.800;18.102;2023-03-20T01:21:02;5.50;;;2.78;;
43676;SDS011;29275;48.800;18.102;2023-03-20T01:24:05;4.75;;;2.80;;
43676;SDS011;29275;48.800;18.102;2023-03-20T01:27:17;5.15;;;2.30;;
43676;SDS011;29275;48.800;18.102;2023-03-20T01:30:22;3.97;;;2.42;;
43676;SDS011;29275;48.800;18.102;2023-03-20T01:33:26;8.38;;;3.15;;
43676;SDS011;29275;48.800;18.102;2023-03-20T01:36:30;6.53;;;2.95;;
43676;SDS011;29275;48.800;18.102;2023-03-20T01:39:34;6.10;;;2.97;;
43676;SDS011;29275;48.800;18.102;2023-03-20T01:42:38;5.75;;;3.15;;
43676;SDS011;29275;48.800;18.102;2023-03-20T01:45:45;7.82;;;3.78;;
43676;SDS011;29275;48.800;18.102;2023-03-20T01:52:10;6.35;;;3.53;;
43676;SDS011;29275;48.800;18.102;2023-03-20T01:55:12;7.40;;;4.10;;
43676;SDS011;29275;48.800;18.102;2023-03-20T01:58:18;5.32;;;3.35;;
43676;SDS011;29275;48.800;18.102;2023-03-20T02:01:25;5.85;;;2.70;;
43676;SDS011;29275;48.800;18.102;2023-03-20T02:04:33;8.10;;;3.20;;
43676;SDS011;29275;48.800;18.102;2023-03-20T02:07:44;5.80;;;3.13;;
43676;SDS011;29275;48.800;18.102;2023-03-20T02:10:52;5.75;;;3.08;;
43676;SDS011;29275;48.800;18.102;2023-03-20T02:14:00;6.55;;;3.03;;
43676;SDS011;29275;48.800;18.102;2023-03-20T02:17:11;5.85;;;2.63;;
43676;SDS011;29275;48.800;18.102;2023-03-20T02:43:40;11.60;;;8.10;;
43676;SDS011;29275;48.800;18.102;2023-03-20T02:47:07;10.20;;;3.22;;
43676;SDS011;29275;48.800;18.102;2023-03-20T02:50:59;6.97;;;3.40;;
43676;SDS011;29275;48.800;18.102;2023-03-20T02:53:52;13.73;;;9.15;;
43676;SDS011;29275;48.800;18.102;2023-03-20T02:57:01;4.85;;;2.25;;
43676;SDS011;29275;48.800;18.102;2023-03-20T03:00:31;10.98;;;3.40;;
43676;SDS011;29275;48.800;18.102;2023-03-20T03:03:47;6.47;;;2.58;;
43676;SDS011;29275;48.800;18.102;2023-03-20T03:06:53;7.97;;;4.68;;
43676;SDS011;29275;48.800;18.102;2023-03-20T03:13:22;23.73;;;17.85;;
43676;SDS011;29275;48.800;18.102;2023-03-20T03:16:32;7.85;;;3.00;;
43676;SDS011;29275;48.800;18.102;2023-03-20T03:19:37;12.27;;;4.72;;
43676;SDS011;29275;48.800;18.102;2023-03-20T03:22:41;11.00;;;4.43;;
43676;SDS011;29275;48.800;18.102;2023-03-20T03:25:45;5.20;;;2.90;;
43676;SDS011;29275;48.800;18.102;2023-03-20T03:28:49;6.95;;;3.78;;
43676;SDS011;29275;48.800;18.102;2023-03-20T03:31:54;8.07;;;4.22;;
43676;SDS011;29275;48.800;18.102;2023-03-20T03:34:58;13.23;;;5.32;;
43676;SDS011;29275;48.800;18.102;2023-03-20T03:41:28;9.95;;;5.00;;
43676;SDS011;29275;48.800;18.102;2023-03-20T03:44:54;13.80;;;5.72;;
43676;SDS011;29275;48.800;18.102;2023-03-20T03:48:10;10.90;;;5.45;;
43676;SDS011;29275;48.800;18.102;2023-03-20T03:51:17;11.35;;;5.45;;
43676;SDS011;29275;48.800;18.102;2023-03-20T03:54:33;9.60;;;5.57;;
43676;SDS011;29275;48.800;18.102;2023-03-20T03:57:58;10.48;;;4.80;;
43676;SDS011;29275;48.800;18.102;2023-03-20T04:01:05;9.27;;;4.82;;
43676;SDS011;29275;48.800;18.102;2023-03-20T04:04:09;12.23;;;6.03;;
43676;SDS011;29275;48.800;18.102;2023-03-20T04:07:14;9.25;;;5.47;;
43676;SDS011;29275;48.800;18.102;2023-03-20T04:10:17;8.18;;;5.75;;
43676;SDS011;29275;48.800;18.102;2023-03-20T04:13:20;13.50;;;4.90;;
43676;SDS011;29275;48.800;18.102;2023-03-20T04:16:23;8.32;;;4.80;;
43676;SDS011;29275;48.800;18.102;2023-03-20T04:19:27;26.48;;;18.80;;
43676;SDS011;29275;48.800;18.102;2023-03-20T04:22:30;47.50;;;31.85;;
43676;SDS011;29275;48.800;18.102;2023-03-20T04:25:41;47.50;;;27.77;;
43676;SDS011;29275;48.800;18.102;2023-03-20T04:28:44;36.60;;;18.63;;
43676;SDS011;29275;48.800;18.102;2023-03-20T04:32:05;18.50;;;10.63;;
43676;SDS011;29275;48.800;18.102;2023-03-20T04:35:33;16.85;;;11.15;;
43676;SDS011;29275;48.800;18.102;2023-03-20T04:38:45;9.45;;;5.47;;
43676;SDS011;29275;48.800;18.102;2023-03-20T04:41:48;12.85;;;7.15;;
43676;SDS011;29275;48.800;18.102;2023-03-20T04:44:51;17.20;;;10.70;;
43676;SDS011;29275;48.800;18.102;2023-03-20T04:47:53;14.15;;;6.15;;
43676;SDS011;29275;48.800;18.102;2023-03-20T04:50:57;21.10;;;12.65;;
43676;SDS011;29275;48.800;18.102;2023-03-20T04:54:13;26.25;;;16.17;;
43676;SDS011;29275;48.800;18.102;2023-03-20T04:57:16;12.80;;;6.80;;
43676;SDS011;29275;48.800;18.102;2023-03-20T05:00:19;15.18;;;9.45;;
43676;SDS011;29275;48.800;18.102;2023-03-20T05:03:22;9.57;;;5.72;;
43676;SDS011;29275;48.800;18.102;2023-03-20T05:06:26;10.73;;;6.03;;
43676;SDS011;29275;48.800;18.102;2023-03-20T05:09:29;10.30;;;5.63;;
43676;SDS011;29275;48.800;18.102;2023-03-20T05:12:36;8.10;;;4.72;;
43676;SDS011;29275;48.800;18.102;2023-03-20T05:16:00;11.00;;;5.80;;
43676;SDS011;29275;48.800;18.102;2023-03-20T05:19:17;11.93;;;6.22;;
43676;SDS011;29275;48.800;18.102;2023-03-20T05:22:44;13.73;;;6.45;;
43676;SDS011;29275;48.800;18.102;2023-03-20T05:26:07;12.38;;;6.78;;
43676;SDS011;29275;48.800;18.102;2023-03-20T05:29:28;17.70;;;7.57;;
43676;SDS011;29275;48.800;18.102;2023-03-20T05:32:51;12.90;;;6.93;;
43676;SDS011;29275;48.800;18.102;2023-03-20T05:36:03;15.05;;;6.90;;
43676;SDS011;29275;48.800;18.102;2023-03-20T05:39:22;14.07;;;6.82;;
43676;SDS011;29275;48.800;18.102;2023-03-20T05:42:51;10.40;;;6.40;;
43676;SDS011;29275;48.800;18.102;2023-03-20T05:46:11;9.90;;;6.28;;
43676;SDS011;29275;48.800;18.102;2023-03-20T05:49:26;12.65;;;6.95;;
43676;SDS011;29275;48.800;18.102;2023-03-20T05:53:04;35.07;;;19.73;;
43676;SDS011;29275;48.800;18.102;2023-03-20T05:56:23;30.80;;;14.70;;
43676;SDS011;29275;48.800;18.102;2023-03-20T05:59:44;13.77;;;6.97;;
43676;SDS011;29275;48.800;18.102;2023-03-20T06:03:00;20.77;;;7.80;;
43676;SDS011;29275;48.800;18.102;2023-03-20T06:06:23;8.52;;;3.85;;
43676;SDS011;29275;48.800;18.102;2023-03-20T06:09:26;9.15;;;3.65;;
43676;SDS011;29275;48.800;18.102;2023-03-20T06:12:32;9.70;;;3.20;;
43676;SDS011;29275;48.800;18.102;2023-03-20T06:15:35;13.93;;;4.53;;
43676;SDS011;29275;48.800;18.102;2023-03-20T06:18:46;7.47;;;4.03;;
43676;SDS011;29275;48.800;18.102;2023-03-20T06:21:50;15.10;;;8.38;;
43676;SDS011;29275;48.800;18.102;2023-03-20T06:24:55;14.10;;;5.18;;
43676;SDS011;29275;48.800;18.102;2023-03-20T06:28:04;13.13;;;5.25;;
43676;SDS011;29275;48.800;18.102;2023-03-20T06:31:07;11.13;;;4.10;;
43676;SDS011;29275;48.800;18.102;2023-03-20T06:34:11;10.68;;;5.03;;
43676;SDS011;29275;48.800;18.102;2023-03-20T06:37:18;7.72;;;3.67;;
43676;SDS011;29275;48.800;18.102;2023-03-20T06:40:23;9.00;;;4.82;;
43676;SDS011;29275;48.800;18.102;2023-03-20T06:43:26;11.13;;;3.92;;
43676;SDS011;29275;48.800;18.102;2023-03-20T06:46:29;10.57;;;4.50;;
43676;SDS011;29275;48.800;18.102;2023-03-20T06:49:32;10.50;;;5.55;;
43676;SDS011;29275;48.800;18.102;2023-03-20T06:52:35;9.00;;;4.32;;
43676;SDS011;29275;48.800;18.102;2023-03-20T06:56:02;20.38;;;5.43;;
43676;SDS011;29275;48.800;18.102;2023-03-20T06:59:05;10.57;;;4.68;;
43676;SDS011;29275;48.800;18.102;2023-03-20T07:02:09;9.98;;;4.55;;
43676;SDS011;29275;48.800;18.102;2023-03-20T07:05:13;8.73;;;4.43;;
43676;SDS011;29275;48.800;18.102;2023-03-20T07:08:17;8.10;;;3.70;;
43676;SDS011;29275;48.800;18.102;2023-03-20T07:11:20;9.35;;;3.88;;
43676;SDS011;29275;48.800;18.102;2023-03-20T07:14:27;12.05;;;5.15;;
43676;SDS011;29275;48.800;18.102;2023-03-20T07:17:38;8.82;;;4.80;;
43676;SDS011;29275;48.800;18.102;2023-03-20T07:20:41;10.23;;;4.80;;
43676;SDS011;29275;48.800;18.102;2023-03-20T07:23:44;10.25;;;5.05;;
43676;SDS011;29275;48.800;18.102;2023-03-20T07:26:48;8.90;;;5.57;;
43676;SDS011;29275;48.800;18.102;2023-03-20T07:29:52;8.75;;;5.32;;
43676;SDS011;29275;48.800;18.102;2023-03-20T07:32:54;12.65;;;5.45;;
43676;SDS011;29275;48.800;18.102;2023-03-20T07:36:02;8.82;;;4.43;;
43676;SDS011;29275;48.800;18.102;2023-03-20T07:39:05;13.00;;;5.95;;
43676;SDS011;29275;48.800;18.102;2023-03-20T07:42:09;9.43;;;6.03;;
43676;SDS011;29275;48.800;18.102;2023-03-20T07:45:19;12.57;;;6.60;;
43676;SDS011;29275;48.800;18.102;2023-03-20T07:48:22;10.50;;;5.40;;
43676;SDS011;29275;48.800;18.102;2023-03-20T07:51:25;17.65;;;6.15;;
43676;SDS011;29275;48.800;18.102;2023-03-20T07:54:27;12.57;;;5.55;;
43676;SDS011;29275;48.800;18.102;2023-03-20T07:57:32;12.18;;;4.70;;
43676;SDS011;29275;48.800;18.102;2023-03-20T08:00:34;8.68;;;4.80;;
43676;SDS011;29275;48.800;18.102;2023-03-20T08:03:37;14.43;;;5.57;;
43676;SDS011;29275;48.800;18.102;2023-03-20T08:06:41;12.98;;;5.45;;
43676;SDS011;29275;48.800;18.102;2023-03-20T08:09:45;9.88;;;5.50;;
43676;SDS011;29275;48.800;18.102;2023-03-20T08:12:47;11.10;;;6.13;;
43676;SDS011;29275;48.800;18.102;2023-03-20T08:15:50;10.50;;;5.90;;
43676;SDS011;29275;48.800;18.102;2023-03-20T08:18:53;16.15;;;6.50;;
43676;SDS011;29275;48.800;18.102;2023-03-20T08:22:05;14.35;;;7.80;;
43676;SDS011;29275;48.800;18.102;2023-03-20T08:25:08;16.80;;;7.13;;
43676;SDS011;29275;48.800;18.102;2023-03-20T08:28:11;15.82;;;8.27;;
43676;SDS011;29275;48.800;18.102;2023-03-20T08:31:15;12.70;;;6.88;;
43676;SDS011;29275;48.800;18.102;2023-03-20T08:34:18;14.88;;;7.30;;
43676;SDS011;29275;48.800;18.102;2023-03-20T08:37:24;12.35;;;6.72;;
43676;SDS011;29275;48.800;18.102;2023-03-20T08:40:28;15.68;;;7.47;;
43676;SDS011;29275;48.800;18.102;2023-03-20T08:43:31;16.42;;;7.93;;
43676;SDS011;29275;48.800;18.102;2023-03-20T08:46:33;14.60;;;7.68;;
43676;SDS011;29275;48.800;18.102;2023-03-20T08:49:36;14.27;;;8.10;;
43676;SDS011;29275;48.800;18.102;2023-03-20T08:52:39;21.30;;;8.68;;
43676;SDS011;29275;48.800;18.102;2023-03-20T08:55:51;11.90;;;7.13;;
43676;SDS011;29275;48.800;18.102;2023-03-20T08:58:55;16.77;;;7.43;;
43676;SDS011;29275;48.800;18.102;2023-03-20T09:01:58;13.05;;;7.18;;
43676;SDS011;29275;48.800;18.102;2023-03-20T09:05:00;13.18;;;7.18;;
43676;SDS011;29275;48.800;18.102;2023-03-20T09:08:03;16.77;;;8.38;;
43676;SDS011;29275;48.800;18.102;2023-03-20T09:11:06;13.90;;;7.22;;
43676;SDS011;29275;48.800;18.102;2023-03-20T09:14:09;18.10;;;9.25;;
43676;SDS011;29275;48.800;18.102;2023-03-20T09:17:12;15.45;;;8.65;;
43676;SDS011;29275;48.800;18.102;2023-03-20T09:20:14;18.85;;;9.15;;
43676;SDS011;29275;48.800;18.102;2023-03-20T09:23:17;17.15;;;7.95;;
43676;SDS011;29275;48.800;18.102;2023-03-20T09:26:20;17.52;;;8.90;;
43676;SDS011;29275;48.800;18.102;2023-03-20T09:29:23;19.55;;;9.73;;
43676;SDS011;29275;48.800;18.102;2023-03-20T09:32:26;16.17;;;8.68;;
43676;SDS011;29275;48.800;18.102;2023-03-20T09:35:29;16.58;;;8.98;;
43676;SDS011;29275;48.800;18.102;2023-03-20T09:38:32;18.52;;;10.02;;
43676;SDS011;29275;48.800;18.102;2023-03-20T09:41:35;13.43;;;8.80;;
43676;SDS011;29275;48.800;18.102;2023-03-20T09:45:00;16.20;;;8.88;;
43676;SDS011;29275;48.800;18.102;2023-03-20T09:54:42;12.48;;;7.47;;
43676;SDS011;29275;48.800;18.102;2023-03-20T09:57:56;15.45;;;8.30;;
43676;SDS011;29275;48.800;18.102;2023-03-20T10:01:00;21.80;;;8.38;;
43676;SDS011;29275;48.800;18.102;2023-03-20T10:04:06;13.85;;;7.82;;
43676;SDS011;29275;48.800;18.102;2023-03-20T10:07:11;13.07;;;7.75;;
43676;SDS011;29275;48.800;18.102;2023-03-20T10:10:15;17.85;;;7.65;;
43676;SDS011;29275;48.800;18.102;2023-03-20T10:23:17;14.50;;;7.72;;
43676;SDS011;29275;48.800;18.102;2023-03-20T10:26:25;10.02;;;5.95;;
43676;SDS011;29275;48.800;18.102;2023-03-20T10:29:45;10.07;;;6.13;;
43676;SDS011;29275;48.800;18.102;2023-03-20T10:43:02;11.38;;;5.75;;
43676;SDS011;29275;48.800;18.102;2023-03-20T10:46:26;10.55;;;6.45;;
43676;SDS011;29275;48.800;18.102;2023-03-20T10:52:58;17.30;;;7.20;;
43676;SDS011;29275;48.800;18.102;2023-03-20T10:56:05;13.85;;;7.65;;
43676;SDS011;29275;48.800;18.102;2023-03-20T10:59:26;12.05;;;6.65;;
43676;SDS011;29275;48.800;18.102;2023-03-20T11:02:30;12.25;;;6.57;;
43676;SDS011;29275;48.800;18.102;2023-03-20T11:05:38;11.00;;;6.45;;
43676;SDS011;29275;48.800;18.102;2023-03-20T11:08:45;10.40;;;6.15;;
43676;SDS011;29275;48.800;18.102;2023-03-20T11:11:50;11.63;;;6.88;;
43676;SDS011;29275;48.800;18.102;2023-03-20T11:14:56;11.10;;;6.40;;
43676;SDS011;29275;48.800;18.102;2023-03-20T11:18:05;12.38;;;6.55;;
43676;SDS011;29275;48.800;18.102;2023-03-20T11:21:19;11.32;;;5.65;;
43676;SDS011;29275;48.800;18.102;2023-03-20T11:27:42;9.13;;;4.75;;
43676;SDS011;29275;48.800;18.102;2023-03-20T11:30:45;14.25;;;4.85;;
43676;SDS011;29275;48.800;18.102;2023-03-20T11:37:24;8.25;;;5.40;;
43676;SDS011;29275;48.800;18.102;2023-03-20T11:40:31;9.43;;;5.45;;
43676;SDS011;29275;48.800;18.102;2023-03-20T11:43:36;11.45;;;5.15;;
43676;SDS011;29275;48.800;18.102;2023-03-20T11:46:39;8.98;;;5.35;;
43676;SDS011;29275;48.800;18.102;2023-03-20T11:49:45;11.20;;;5.05;;
43676;SDS011;29275;48.800;18.102;2023-03-20T11:52:51;5.25;;;2.90;;
43676;SDS011;29275;48.800;18.102;2023-03-20T11:56:13;8.45;;;4.07;;
43676;SDS011;29275;48.800;18.102;2023-03-20T11:59:31;5.70;;;3.60;;
43676;SDS011;29275;48.800;18.102;2023-03-20T12:02:35;7.22;;;4.63;;
43676;SDS011;29275;48.800;18.102;2023-03-20T12:05:39;8.18;;;5.07;;
43676;SDS011;29275;48.800;18.102;2023-03-20T12:08:42;9.85;;;5.10;;
43676;SDS011;29275;48.800;18.102;2023-03-20T12:11:54;9.90;;;5.07;;
43676;SDS011;29275;48.800;18.102;2023-03-20T12:18:37;12.00;;;5.72;;
43676;SDS011;29275;48.800;18.102;2023-03-20T12:21:43;8.82;;;5.18;;
43676;SDS011;29275;48.800;18.102;2023-03-20T12:24:58;12.13;;;5.43;;
43676;SDS011;29275;48.800;18.102;2023-03-20T12:31:24;6.53;;;3.95;;
43676;SDS011;29275;48.800;18.102;2023-03-20T12:34:32;8.20;;;4.28;;
43676;SDS011;29275;48.800;18.102;2023-03-20T12:37:37;8.95;;;3.90;;
43676;SDS011;29275;48.800;18.102;2023-03-20T12:40:41;5.45;;;3.88;;
43676;SDS011;29275;48.800;18.102;2023-03-20T12:50:53;7.07;;;4.05;;
43676;SDS011;29275;48.800;18.102;2023-03-20T12:54:21;6.38;;;3.35;;
43676;SDS011;29275;48.800;18.102;2023-03-20T13:01:18;4.95;;;3.10;;
43676;SDS011;29275;48.800;18.102;2023-03-20T13:07:54;5.70;;;3.22;;
43676;SDS011;29275;48.800;18.102;2023-03-20T13:14:19;12.95;;;6.07;;
43676;SDS011;29275;48.800;18.102;2023-03-20T13:21:12;15.30;;;5.22;;
43676;SDS011;29275;48.800;18.102;2023-03-20T13:24:24;7.68;;;3.17;;
43676;SDS011;29275;48.800;18.102;2023-03-20T13:27:36;4.97;;;2.90;;
43676;SDS011;29275;48.800;18.102;2023-03-20T13:37:59;5.50;;;3.58;;
43676;SDS011;29275;48.800;18.102;2023-03-20T13:41:05;5.93;;;2.80;;
43676;SDS011;29275;48.800;18.102;2023-03-20T13:44:11;3.67;;;2.40;;
43676;SDS011;29275;48.800;18.102;2023-03-20T13:47:21;5.45;;;3.28;;
43676;SDS011;29275;48.800;18.102;2023-03-20T13:57:24;5.75;;;3.28;;
43676;SDS011;29275;48.800;18.102;2023-03-20T14:00:38;5.35;;;3.47;;
43676;SDS011;29275;48.800;18.102;2023-03-20T14:03:48;12.73;;;3.28;;
43676;SDS011;29275;48.800;18.102;2023-03-20T14:06:53;7.35;;;3.22;;
43676;SDS011;29275;48.800;18.102;2023-03-20T14:09:56;7.80;;;3.35;;
43676;SDS011;29275;48.800;18.102;2023-03-20T14:12:59;4.38;;;3.20;;
43676;SDS011;29275;48.800;18.102;2023-03-20T14:16:08;5.20;;;3.65;;
43676;SDS011;29275;48.800;18.102;2023-03-20T14:19:18;5.63;;;3.40;;
43676;SDS011;29275;48.800;18.102;2023-03-20T14:22:26;6.72;;;3.83;;
43676;SDS011;29275;48.800;18.102;2023-03-20T14:25:35;6.13;;;3.15;;
43676;SDS011;29275;48.800;18.102;2023-03-20T14:28:51;6.45;;;3.42;;
43676;SDS011;29275;48.800;18.102;2023-03-20T14:41:23;12.38;;;5.53;;
43676;SDS011;29275;48.800;18.102;2023-03-20T14:48:32;10.77;;;5.80;;
43676;SDS011;29275;48.800;18.102;2023-03-20T14:51:40;13.55;;;5.82;;
43676;SDS011;29275;48.800;18.102;2023-03-20T14:54:52;11.40;;;6.95;;
43676;SDS011;29275;48.800;18.102;2023-03-20T14:58:03;9.75;;;5.78;;
43676;SDS011;29275;48.800;18.102;2023-03-20T15:01:09;12.68;;;6.32;;
43676;SDS011;29275;48.800;18.102;2023-03-20T15:04:26;11.93;;;6.38;;
43676;SDS011;29275;48.800;18.102;2023-03-20T15:07:37;13.90;;;5.97;;
43676;SDS011;29275;48.800;18.102;2023-03-20T15:10:49;8.70;;;5.95;;
43676;SDS011;29275;48.800;18.102;2023-03-20T15:13:53;12.35;;;6.50;;
43676;SDS011;29275;48.800;18.102;2023-03-20T15:16:57;9.95;;;7.15;;
43676;SDS011;29275;48.800;18.102;2023-03-20T15:20:04;9.27;;;6.75;;
43676;SDS011;29275;48.800;18.102;2023-03-20T15:23:08;11.00;;;6.85;;
43676;SDS011;29275;48.800;18.102;2023-03-20T15:26:14;10.88;;;6.82;;
43676;SDS011;29275;48.800;18.102;2023-03-20T15:29:18;11.00;;;7.38;;
43676;SDS011;29275;48.800;18.102;2023-03-20T15:32:21;10.90;;;7.03;;
43676;SDS011;29275;48.800;18.102;2023-03-20T15:35:25;14.25;;;7.68;;
43676;SDS011;29275;48.800;18.102;2023-03-20T15:38:29;10.27;;;7.65;;
43676;SDS011;29275;48.800;18.102;2023-03-20T15:41:34;25.65;;;8.48;;
43676;SDS011;29275;48.800;18.102;2023-03-20T15:44:40;19.48;;;8.45;;
43676;SDS011;29275;48.800;18.102;2023-03-20T15:47:44;12.18;;;8.20;;
43676;SDS011;29275;48.800;18.102;2023-03-20T15:50:57;12.43;;;8.13;;
43676;SDS011;29275;48.800;18.102;2023-03-20T15:54:01;13.57;;;8.55;;
43676;SDS011;29275;48.800;18.102;2023-03-20T15:57:10;13.15;;;8.05;;
43676;SDS011;29275;48.800;18.102;2023-03-20T16:03:47;11.68;;;8.07;;
43676;SDS011;29275;48.800;18.102;2023-03-20T16:06:57;14.63;;;8.48;;
43676;SDS011;29275;48.800;18.102;2023-03-20T16:10:01;15.02;;;8.70;;
43676;SDS011;29275;48.800;18.102;2023-03-20T16:13:05;14.60;;;8.70;;
43676;SDS011;29275;48.800;18.102;2023-03-20T16:16:16;13.23;;;8.52;;
43676;SDS011;29275;48.800;18.102;2023-03-20T16:19:22;14.25;;;9.32;;
43676;SDS011;29275;48.800;18.102;2023-03-20T16:22:27;25.20;;;10.32;;
43676;SDS011;29275;48.800;18.102;2023-03-20T16:25:32;18.53;;;11.17;;
43676;SDS011;29275;48.800;18.102;2023-03-20T16:28:36;48.05;;;29.92;;
43676;SDS011;29275;48.800;18.102;2023-03-20T16:31:47;109.53;;;43.35;;
43676;SDS011;29275;48.800;18.102;2023-03-20T16:34:56;148.20;;;56.60;;
43676;SDS011;29275;48.800;18.102;2023-03-20T16:38:00;61.05;;;28.08;;
43676;SDS011;29275;48.800;18.102;2023-03-20T16:41:14;22.02;;;12.13;;
43676;SDS011;29275;48.800;18.102;2023-03-20T16:44:21;16.58;;;9.13;;
43676;SDS011;29275;48.800;18.102;2023-03-20T16:47:33;14.85;;;9.07;;
43676;SDS011;29275;48.800;18.102;2023-03-20T16:50:38;19.10;;;9.48;;
43676;SDS011;29275;48.800;18.102;2023-03-20T16:53:46;17.55;;;8.98;;
43676;SDS011;29275;48.800;18.102;2023-03-20T16:56:51;12.98;;;9.20;;
43676;SDS011;29275;48.800;18.102;2023-03-20T16:59:55;20.50;;;11.05;;
43676;SDS011;29275;48.800;18.102;2023-03-20T17:03:23;22.65;;;11.25;;
43676;SDS011;29275;48.800;18.102;2023-03-20T17:06:34;14.23;;;9.05;;
43676;SDS011;29275;48.800;18.102;2023-03-20T17:09:43;12.82;;;8.70;;
43676;SDS011;29275;48.800;18.102;2023-03-20T17:12:56;13.13;;;8.52;;
43676;SDS011;29275;48.800;18.102;2023-03-20T17:15:58;14.43;;;8.70;;
43676;SDS011;29275;48.800;18.102;2023-03-20T17:19:04;40.00;;;11.10;;
43676;SDS011;29275;48.800;18.102;2023-03-20T17:22:19;10.90;;;7.57;;
43676;SDS011;29275;48.800;18.102;2023-03-20T17:25:23;12.90;;;8.13;;
43676;SDS011;29275;48.800;18.102;2023-03-20T17:28:27;12.93;;;6.53;;
43676;SDS011;29275;48.800;18.102;2023-03-20T17:31:35;9.55;;;6.60;;
43676;SDS011;29275;48.800;18.102;2023-03-20T17:34:38;10.65;;;6.45;;
43676;SDS011;29275;48.800;18.102;2023-03-20T17:37:41;11.30;;;6.60;;
43676;SDS011;29275;48.800;18.102;2023-03-20T17:40:47;14.15;;;5.97;;
43676;SDS011;29275;48.800;18.102;2023-03-20T17:43:51;20.00;;;7.78;;
43676;SDS011;29275;48.800;18.102;2023-03-20T17:46:55;10.80;;;6.32;;
43676;SDS011;29275;48.800;18.102;2023-03-20T17:50:00;10.20;;;5.97;;
43676;SDS011;29275;48.800;18.102;2023-03-20T17:53:03;9.77;;;5.97;;
43676;SDS011;29275;48.800;18.102;2023-03-20T17:56:10;13.70;;;7.05;;
43676;SDS011;29275;48.800;18.102;2023-03-20T17:59:16;13.57;;;6.90;;
43676;SDS011;29275;48.800;18.102;2023-03-20T18:02:19;9.48;;;6.13;;
43676;SDS011;29275;48.800;18.102;2023-03-20T18:05:22;9.30;;;7.18;;
43676;SDS011;29275;48.800;18.102;2023-03-20T18:08:25;10.98;;;6.40;;
43676;SDS011;29275;48.800;18.102;2023-03-20T18:11:28;13.00;;;7.45;;
43676;SDS011;29275;48.800;18.102;2023-03-20T18:14:31;8.98;;;5.85;;
43676;SDS011;29275;48.800;18.102;2023-03-20T18:17:34;9.10;;;5.40;;
43676;SDS011;29275;48.800;18.102;2023-03-20T18:20:37;9.32;;;5.80;;
43676;SDS011;29275;48.800;18.102;2023-03-20T18:23:43;9.05;;;5.95;;
43676;SDS011;29275;48.800;18.102;2023-03-20T18:26:46;10.27;;;6.20;;
43676;SDS011;29275;48.800;18.102;2023-03-20T18:29:49;9.20;;;5.50;;
43676;SDS011;29275;48.800;18.102;2023-03-20T18:32:53;8.52;;;5.80;;
43676;SDS011;29275;48.800;18.102;2023-03-20T18:35:58;7.95;;;5.18;;
43676;SDS011;29275;48.800;18.102;2023-03-20T18:39:02;9.90;;;5.40;;
43676;SDS011;29275;48.800;18.102;2023-03-20T18:42:06;7.63;;;5.50;;
43676;SDS011;29275;48.800;18.102;2023-03-20T18:45:09;9.30;;;5.95;;
43676;SDS011;29275;48.800;18.102;2023-03-20T18:48:13;10.23;;;6.22;;
43676;SDS011;29275;48.800;18.102;2023-03-20T18:51:16;8.90;;;6.15;;
43676;SDS011;29275;48.800;18.102;2023-03-20T18:54:20;11.77;;;6.55;;
43676;SDS011;29275;48.800;18.102;2023-03-20T18:57:22;10.25;;;5.55;;
43676;SDS011;29275;48.800;18.102;2023-03-20T19:00:37;12.65;;;6.85;;
43676;SDS011;29275;48.800;18.102;2023-03-20T19:03:44;12.27;;;5.82;;
43676;SDS011;29275;48.800;18.102;2023-03-20T19:06:48;11.40;;;6.15;;
43676;SDS011;29275;48.800;18.102;2023-03-20T19:09:51;9.77;;;6.22;;
43676;SDS011;29275;48.800;18.102;2023-03-20T19:12:54;9.80;;;6.22;;
43676;SDS011;29275;48.800;18.102;2023-03-20T19:15:57;14.35;;;7.13;;
43676;SDS011;29275;48.800;18.102;2023-03-20T19:19:01;13.00;;;7.30;;
43676;SDS011;29275;48.800;18.102;2023-03-20T19:22:05;11.85;;;7.03;;
43676;SDS011;29275;48.800;18.102;2023-03-20T19:25:16;13.70;;;8.13;;
43676;SDS011;29275;48.800;18.102;2023-03-20T19:28:23;13.20;;;8.95;;
43676;SDS011;29275;48.800;18.102;2023-03-20T19:31:42;19.67;;;9.85;;
43676;SDS011;29275;48.800;18.102;2023-03-20T19:34:45;12.38;;;7.65;;
43676;SDS011;29275;48.800;18.102;2023-03-20T19:38:11;15.90;;;9.45;;
43676;SDS011;29275;48.800;18.102;2023-03-20T19:41:15;18.20;;;8.32;;
43676;SDS011;29275;48.800;18.102;2023-03-20T19:44:21;14.43;;;8.70;;
43676;SDS011;29275;48.800;18.102;2023-03-20T19:47:23;15.50;;;8.75;;
43676;SDS011;29275;48.800;18.102;2023-03-20T19:53:35;18.67;;;8.85;;
43676;SDS011;29275;48.800;18.102;2023-03-20T19:56:37;19.08;;;10.43;;
43676;SDS011;29275;48.800;18.102;2023-03-20T19:59:41;20.15;;;11.35;;
43676;SDS011;29275;48.800;18.102;2023-03-20T20:02:45;16.23;;;10.48;;
43676;SDS011;29275;48.800;18.102;2023-03-20T20:05:49;22.05;;;11.60;;
43676;SDS011;29275;48.800;18.102;2023-03-20T20:08:54;18.02;;;11.38;;
43676;SDS011;29275;48.800;18.102;2023-03-20T20:11:57;17.65;;;10.50;;
43676;SDS011;29275;48.800;18.102;2023-03-20T20:15:00;17.00;;;10.18;;
43676;SDS011;29275;48.800;18.102;2023-03-20T20:18:02;14.60;;;8.57;;
43676;SDS011;29275;48.800;18.102;2023-03-20T20:21:05;15.52;;;8.63;;
43676;SDS011;29275;48.800;18.102;2023-03-20T20:24:28;21.27;;;11.57;;
43676;SDS011;29275;48.800;18.102;2023-03-20T20:27:31;15.85;;;10.13;;
43676;SDS011;29275;48.800;18.102;2023-03-20T20:30:34;16.75;;;10.50;;
43676;SDS011;29275;48.800;18.102;2023-03-20T20:33:38;16.48;;;8.93;;